Terminal Aerodrome Forecast
Issued by NWS

Home | Current Version | Previous Version | Text Only | Print | Product List | Glossary On
Versions: 1 2 3 4 5 6 7 8 9 10 11 12 13 14 15 16 17 18 19 20 21 22 23 24 25 26 27
000
FTUS43 KSGF 221100
TAFJLN
TAF
KJLN 221137Z 2212/2312 VRB04KT P6SM SCT250
     FM221400 12008KT P6SM SCT100 BKN250
     FM222100 34005KT P6SM VCSH BKN050 OVC100
     FM230100 VRB03KT P6SM -SHRA SCT030 OVC050=

USA.gov is the U.S. government's official web portal to all federal, state and local government web resources and services.